createdAt,value
2018-12-13T00:00:07.794Z,15.53
2018-12-13T00:02:35.398Z,14.43
2018-12-13T00:05:03.184Z,14.30
2018-12-13T00:07:30.746Z,14.97
2018-12-13T00:09:58.344Z,14.47
2018-12-13T00:12:25.893Z,14.57
2018-12-13T00:14:53.488Z,14.60
2018-12-13T00:17:21.081Z,13.90
2018-12-13T00:19:48.652Z,14.10
2018-12-13T00:22:16.256Z,13.73
2018-12-13T00:24:43.849Z,14.77
2018-12-13T00:27:11.452Z,15.00
2018-12-13T00:29:39.046Z,13.90
2018-12-13T05:03:03.544Z,17.27
2018-12-13T05:05:31.100Z,17.00
2018-12-13T05:07:58.669Z,18.83
2018-12-13T05:10:38.212Z,18.03
2018-12-13T05:13:05.805Z,18.17
2018-12-13T05:15:33.404Z,16.90
2018-12-13T05:18:01.018Z,17.40
2018-12-13T05:20:28.590Z,17.13
2018-12-13T05:22:56.192Z,16.50
2018-12-13T05:25:23.762Z,16.70
2018-12-13T05:27:51.345Z,17.87
2018-12-13T05:30:18.969Z,16.97
2018-12-13T05:32:46.538Z,17.53
2018-12-13T05:35:14.109Z,17.47
2018-12-13T05:37:48.150Z,16.50
2018-12-13T05:40:11.737Z,17.13
2018-12-13T05:42:39.371Z,16.87
2018-12-13T05:45:07.142Z,17.20
2018-12-13T05:47:34.753Z,16.63
2018-12-13T05:50:02.365Z,16.07
2018-12-13T05:52:29.980Z,16.00
2018-12-13T05:54:57.682Z,16.60
2018-12-13T05:57:25.294Z,15.80
2018-12-13T05:59:52.896Z,16.50
2018-12-13T06:02:20.470Z,16.63
2018-12-13T06:04:48.076Z,16.80
2018-12-13T06:07:15.651Z,16.37
2018-12-13T06:09:43.274Z,15.93
2018-12-13T06:12:10.854Z,15.83
2018-12-13T06:14:38.466Z,16.93
2018-12-13T06:17:06.080Z,15.33
2018-12-13T06:19:33.684Z,16.20
2018-12-13T06:22:01.249Z,17.00
2018-12-13T06:24:29.913Z,16.10
2018-12-13T06:26:57.539Z,16.20
2018-12-13T06:29:25.111Z,16.20
2018-12-13T06:31:52.713Z,15.70
2018-12-13T06:34:20.281Z,16.17
2018-12-13T06:36:47.893Z,16.70
2018-12-13T06:39:15.475Z,16.00
2018-12-13T06:41:43.089Z,14.47
2018-12-13T06:44:10.671Z,15.97
2018-12-13T06:46:38.380Z,15.10
2018-12-13T06:49:05.950Z,16.27
2018-12-13T06:51:33.523Z,16.30
2018-12-13T06:54:01.144Z,16.23
2018-12-13T06:56:28.769Z,17.43
2018-12-13T06:58:56.397Z,16.87
2018-12-13T07:01:23.971Z,17.50
2018-12-13T07:03:51.655Z,16.60
2018-12-13T07:06:19.242Z,17.17
2018-12-13T07:08:46.853Z,16.47
2018-12-13T07:11:14.423Z,17.30
2018-12-13T07:13:42.061Z,17.00
2018-12-13T07:16:09.640Z,17.27
2018-12-13T07:18:37.212Z,16.27
2018-12-13T07:21:04.816Z,17.27
2018-12-13T07:23:32.428Z,17.13
2018-12-13T07:26:00.045Z,16.40
2018-12-13T07:28:29.020Z,16.97
2018-12-13T07:30:56.752Z,17.13
2018-12-13T07:33:24.334Z,17.50
2018-12-13T07:35:51.962Z,17.97
2018-12-13T07:38:19.540Z,17.77
2018-12-13T07:40:47.124Z,17.10
2018-12-13T07:43:14.743Z,15.47
2018-12-13T07:45:42.338Z,16.80
2018-12-13T07:48:09.963Z,16.20
2018-12-13T07:50:37.533Z,17.00
2018-12-13T07:53:05.145Z,16.23
2018-12-13T07:55:32.754Z,16.87
2018-12-13T07:58:00.385Z,16.97
2018-12-13T08:00:27.955Z,16.63
2018-12-13T08:02:55.576Z,17.10
2018-12-13T08:05:23.148Z,15.70
2018-12-13T08:07:50.736Z,16.13
2018-12-13T08:10:18.356Z,15.90
2018-12-13T08:12:45.932Z,16.77
2018-12-13T08:15:13.500Z,15.77
2018-12-13T08:17:41.111Z,16.60
2018-12-13T08:20:08.880Z,17.07
2018-12-13T08:22:36.490Z,16.53
2018-12-13T08:25:05.066Z,15.97
2018-12-13T08:27:32.676Z,16.23
2018-12-13T08:30:00.317Z,15.90
2018-12-13T08:32:27.896Z,16.20
2018-12-13T08:34:55.571Z,15.60
2018-12-13T08:37:23.183Z,16.50
2018-12-13T08:39:50.752Z,16.33
2018-12-13T08:42:18.451Z,15.83
2018-12-13T08:44:46.015Z,15.43
2018-12-13T08:47:13.634Z,17.40
2018-12-13T08:49:41.223Z,16.97
2018-12-13T08:52:08.821Z,16.60
2018-12-13T08:54:36.443Z,16.00
2018-12-13T08:57:04.008Z,17.57
2018-12-13T08:59:31.582Z,17.13
2018-12-13T09:01:59.217Z,16.93
2018-12-13T09:04:26.797Z,16.47
2018-12-13T09:06:54.399Z,15.93
2018-12-13T09:09:21.975Z,15.97
2018-12-13T09:11:49.585Z,15.30
2018-12-13T09:14:17.151Z,14.77
2018-12-13T09:16:44.864Z,14.70
2018-12-13T09:19:12.430Z,15.97
2018-12-13T09:21:40.017Z,15.83
2018-12-13T09:24:07.620Z,15.53
2018-12-13T09:26:35.198Z,16.07
2018-12-13T09:29:02.813Z,15.27
2018-12-13T09:31:30.387Z,15.13
2018-12-13T09:33:57.996Z,15.20
2018-12-13T09:36:25.631Z,15.03
2018-12-13T09:38:53.201Z,14.87
2018-12-13T09:41:20.818Z,15.57
2018-12-13T09:43:48.390Z,15.23
2018-12-13T09:46:16.007Z,15.60
2018-12-13T09:48:43.617Z,14.97
2018-12-13T09:51:11.221Z,15.63
2018-12-13T09:53:38.837Z,15.90
2018-12-13T09:56:06.556Z,15.17
2018-12-13T09:58:34.134Z,15.97
2018-12-13T10:01:01.744Z,15.20
2018-12-13T10:03:29.314Z,15.27
2018-12-13T10:05:56.925Z,15.47
2018-12-13T10:08:24.500Z,14.70
2018-12-13T10:10:52.112Z,15.37
2018-12-13T10:13:19.691Z,14.53
2018-12-13T10:15:47.295Z,14.80
2018-12-13T10:18:15.808Z,15.40
2018-12-13T10:20:43.603Z,14.97
2018-12-13T10:23:11.197Z,15.07
2018-12-13T10:25:38.816Z,14.43
2018-12-13T10:28:06.394Z,15.60
2018-12-13T10:30:34.116Z,15.80
2018-12-13T10:33:01.723Z,15.20
2018-12-13T10:35:29.343Z,14.70
2018-12-13T10:37:56.911Z,14.90
2018-12-13T10:40:24.532Z,15.83
2018-12-13T10:42:52.101Z,15.60
2018-12-13T10:45:19.719Z,15.43
2018-12-13T10:47:47.344Z,15.47
2018-12-13T10:50:14.914Z,15.13
2018-12-13T10:52:42.530Z,15.47
2018-12-13T10:55:10.143Z,15.77
2018-12-13T10:57:37.707Z,14.80
2018-12-13T11:00:08.916Z,15.40
2018-12-13T11:02:50.490Z,16.70
2018-12-13T11:05:18.099Z,15.87
2018-12-13T11:07:45.674Z,15.20
2018-12-13T11:10:13.392Z,15.73
2018-12-13T11:12:40.972Z,16.10
2018-12-13T11:15:08.584Z,15.00
2018-12-13T11:17:36.197Z,15.70
2018-12-13T11:20:04.164Z,15.80
2018-12-13T11:22:31.765Z,14.40
2018-12-13T11:24:59.386Z,15.57
2018-12-13T11:27:38.883Z,16.43
2018-12-13T11:30:24.234Z,15.13
2018-12-13T11:32:51.848Z,15.50
2018-12-13T11:35:19.411Z,14.83
2018-12-13T11:37:47.029Z,15.30
2018-12-13T11:40:14.638Z,15.37
2018-12-13T11:42:42.208Z,15.27
2018-12-13T11:45:09.816Z,15.20
2018-12-13T11:47:37.383Z,15.13
2018-12-13T11:50:05.937Z,14.77
2018-12-13T11:52:33.563Z,15.17
2018-12-13T11:55:05.158Z,14.47
2018-12-13T11:57:32.769Z,15.77
2018-12-13T12:00:00.350Z,14.63
2018-12-13T12:02:27.967Z,14.33
2018-12-13T12:04:55.541Z,13.53
2018-12-13T12:07:23.164Z,14.57
2018-12-13T12:09:50.733Z,15.27
2018-12-13T12:12:18.349Z,14.73
2018-12-13T12:14:45.912Z,14.57
2018-12-13T12:17:13.527Z,14.47
2018-12-13T12:19:41.097Z,15.37
2018-12-13T12:22:08.705Z,14.97
2018-12-13T12:24:36.321Z,15.37
2018-12-13T12:27:03.900Z,15.00
2018-12-13T12:29:31.512Z,14.57
2018-12-13T12:31:59.241Z,15.93
2018-12-13T12:34:26.813Z,14.57
2018-12-13T12:36:54.425Z,15.57
2018-12-13T12:39:22.002Z,16.03
2018-12-13T12:41:49.630Z,15.40
2018-12-13T12:44:17.244Z,15.00
2018-12-13T12:46:44.813Z,15.17
2018-12-13T12:49:12.427Z,14.33
2018-12-13T12:51:40.052Z,14.73
2018-12-13T12:54:07.764Z,15.27
2018-12-13T12:56:35.401Z,14.57
2018-12-13T12:59:03.036Z,15.77
2018-12-13T13:01:30.667Z,15.37
2018-12-13T13:03:58.229Z,15.90
2018-12-13T13:06:25.934Z,14.53
2018-12-13T13:08:53.507Z,14.83
2018-12-13T13:11:21.117Z,14.33
2018-12-13T13:13:48.713Z,13.93
2018-12-13T13:16:16.327Z,13.50
2018-12-13T13:18:43.966Z,13.70
2018-12-13T13:21:11.558Z,13.90
2018-12-13T13:23:39.169Z,13.10
2018-12-13T13:26:06.802Z,14.07
2018-12-13T13:28:34.482Z,13.80
2018-12-13T13:31:02.088Z,13.37
2018-12-13T13:33:29.684Z,12.37
2018-12-13T13:35:57.292Z,12.83
2018-12-13T13:38:24.898Z,13.57
2018-12-13T13:40:52.465Z,12.60
2018-12-13T13:43:20.137Z,12.53
2018-12-13T13:45:47.742Z,13.43
2018-12-13T13:48:15.374Z,13.57
2018-12-13T13:50:42.977Z,13.67
2018-12-13T13:53:10.625Z,13.07
2018-12-13T13:55:38.224Z,13.37
2018-12-13T13:58:05.933Z,12.97
2018-12-13T14:00:33.569Z,13.60
2018-12-13T14:03:01.161Z,13.07
2018-12-13T14:05:28.867Z,14.00
2018-12-13T14:07:56.461Z,13.63
2018-12-13T14:10:24.033Z,13.60
2018-12-13T14:12:51.637Z,13.93
2018-12-13T14:15:19.252Z,13.53
2018-12-13T14:17:46.827Z,14.03
2018-12-13T14:20:14.433Z,14.27
2018-12-13T14:22:42.091Z,13.37
2018-12-13T14:25:09.696Z,13.47
2018-12-13T14:27:37.267Z,13.50
2018-12-13T14:30:06.381Z,14.10
2018-12-13T14:32:33.958Z,14.10
2018-12-13T14:35:01.560Z,14.50
2018-12-13T14:37:29.129Z,13.83
2018-12-13T14:39:56.755Z,14.37
2018-12-13T14:42:24.412Z,14.57
2018-12-13T14:44:52.029Z,13.77
2018-12-13T14:47:19.602Z,14.10
2018-12-13T14:49:47.209Z,14.17
2018-12-13T14:52:14.801Z,14.20
2018-12-13T14:54:42.435Z,14.03
2018-12-13T14:57:10.049Z,13.27
2018-12-13T14:59:37.643Z,13.03
2018-12-13T15:02:05.438Z,13.50
2018-12-13T15:04:33.009Z,12.77
2018-12-13T15:07:00.611Z,12.53
2018-12-13T15:09:28.237Z,12.73
2018-12-13T15:11:55.817Z,12.60
2018-12-13T15:14:23.448Z,11.53
2018-12-13T15:16:51.025Z,12.83
2018-12-13T15:19:18.630Z,11.33
2018-12-13T15:21:46.235Z,11.67
2018-12-13T15:24:13.812Z,12.00
2018-12-13T15:26:41.443Z,12.40
2018-12-13T15:29:09.039Z,12.37
2018-12-13T15:31:36.647Z,12.10
2018-12-13T15:34:04.254Z,12.13
2018-12-13T15:36:31.865Z,12.10
2018-12-13T15:38:59.489Z,11.37
2018-12-13T15:41:27.059Z,11.20
2018-12-13T15:43:54.661Z,11.17
2018-12-13T15:46:22.268Z,12.17
2018-12-13T15:48:49.888Z,11.43
2018-12-13T15:51:17.449Z,11.57
2018-12-13T15:53:45.019Z,10.90
2018-12-13T15:56:12.643Z,11.27
2018-12-13T15:58:40.218Z,11.50
2018-12-13T16:01:07.790Z,10.60
2018-12-13T16:03:35.389Z,10.80
2018-12-13T16:06:02.952Z,11.83
2018-12-13T16:08:30.589Z,10.67
2018-12-13T16:10:58.170Z,10.77
2018-12-13T16:13:25.788Z,11.03
2018-12-13T16:15:53.357Z,10.40
2018-12-13T16:18:20.969Z,11.53
2018-12-13T16:20:48.580Z,11.33
2018-12-13T16:23:16.148Z,11.40
2018-12-13T16:25:43.752Z,10.90
2018-12-13T16:28:11.329Z,11.50
2018-12-13T16:30:38.944Z,11.17
2018-12-13T16:33:06.521Z,11.77
2018-12-13T16:35:34.150Z,10.63
2018-12-13T16:38:01.722Z,9.60
2018-12-13T16:40:29.323Z,9.97
2018-12-13T16:42:56.924Z,8.97
2018-12-13T16:45:24.496Z,8.70
2018-12-13T16:47:52.109Z,8.53
2018-12-13T16:50:19.720Z,9.17
2018-12-13T16:52:47.296Z,10.80
2018-12-13T16:55:14.905Z,10.67
2018-12-13T16:57:42.578Z,11.17
2018-12-13T17:00:10.361Z,10.57
2018-12-13T17:02:38.101Z,10.90
2018-12-13T17:05:07.708Z,10.83
2018-12-13T17:07:35.316Z,10.70
2018-12-13T17:10:03.428Z,11.23
2018-12-13T17:12:31.017Z,10.37
2018-12-13T17:14:58.678Z,10.40
2018-12-13T17:17:26.260Z,9.77
2018-12-13T17:19:53.891Z,9.70
2018-12-13T17:22:21.506Z,10.43
2018-12-13T17:24:49.084Z,9.57
2018-12-13T17:27:16.686Z,9.53
2018-12-13T17:29:44.257Z,9.63
2018-12-13T17:32:11.870Z,9.57
2018-12-13T17:34:39.433Z,9.87
2018-12-13T17:37:07.192Z,9.70
2018-12-13T17:39:34.763Z,9.83
2018-12-13T17:42:02.336Z,8.97
2018-12-13T17:44:29.936Z,9.53
2018-12-13T17:46:57.506Z,9.57
2018-12-13T17:49:25.135Z,9.43
2018-12-13T17:51:52.702Z,9.57
2018-12-13T17:54:20.333Z,10.20
2018-12-13T17:56:49.431Z,10.03
2018-12-13T17:59:17.241Z,9.30
2018-12-13T18:01:44.863Z,11.63
2018-12-13T18:04:12.430Z,10.73
2018-12-13T18:06:40.032Z,10.60
2018-12-13T18:09:07.674Z,11.33
2018-12-13T18:11:35.314Z,11.83
2018-12-13T18:14:02.916Z,11.30
2018-12-13T18:16:30.494Z,11.57
2018-12-13T18:18:58.120Z,11.60
2018-12-13T18:21:25.737Z,11.13
2018-12-13T18:23:53.373Z,12.00
2018-12-13T18:26:21.000Z,12.37
2018-12-13T18:28:48.588Z,12.87
2018-12-13T18:31:16.165Z,13.40
2018-12-13T18:33:43.781Z,13.13
2018-12-13T18:36:11.371Z,14.07
2018-12-13T18:38:39.208Z,14.03
2018-12-13T18:41:06.815Z,14.30
2018-12-13T18:43:34.514Z,13.60
2018-12-13T18:46:02.125Z,13.70
2018-12-13T18:48:29.712Z,13.07
2018-12-13T18:50:57.351Z,14.03
2018-12-13T18:53:24.968Z,13.90
2018-12-13T18:55:52.577Z,14.80
2018-12-13T18:58:20.181Z,14.87
2018-12-13T19:00:47.816Z,13.87
2018-12-13T19:03:15.383Z,14.27
2018-12-13T19:05:43.064Z,14.47
2018-12-13T19:08:10.657Z,14.73
2018-12-13T19:10:41.861Z,13.80
2018-12-13T19:13:07.872Z,14.20
2018-12-13T19:15:35.528Z,15.50
2018-12-13T19:18:03.153Z,14.20
2018-12-13T19:20:30.775Z,14.43
2018-12-13T19:22:58.340Z,14.57
2018-12-13T19:25:25.962Z,13.77
2018-12-13T19:27:53.526Z,14.10
2018-12-13T19:30:21.100Z,14.20
2018-12-13T19:32:48.727Z,14.07
2018-12-13T19:35:19.392Z,13.97
2018-12-13T19:37:46.014Z,14.37
2018-12-13T19:40:13.581Z,14.93
2018-12-13T19:42:41.222Z,14.27
2018-12-13T19:45:09.034Z,13.67
2018-12-13T19:47:36.720Z,14.40
2018-12-13T19:50:05.425Z,14.07
2018-12-13T19:52:32.995Z,14.17
2018-12-13T19:55:00.599Z,14.67
2018-12-13T19:57:28.167Z,14.23
2018-12-13T19:59:55.793Z,14.27
2018-12-13T20:02:23.439Z,13.97
2018-12-13T20:04:51.068Z,13.47
2018-12-13T20:07:20.660Z,14.97
2018-12-13T20:09:48.336Z,15.37
2018-12-13T20:12:16.052Z,14.57
2018-12-13T20:14:43.654Z,14.87
2018-12-13T20:17:11.330Z,14.70
2018-12-13T20:19:38.974Z,15.93
2018-12-13T20:22:06.567Z,15.77
2018-12-13T20:24:34.664Z,14.73
2018-12-13T20:27:02.313Z,15.03
2018-12-13T20:29:29.915Z,15.03
2018-12-13T20:31:57.532Z,15.10
2018-12-13T20:34:25.101Z,14.33
2018-12-13T20:36:52.717Z,16.17
2018-12-13T20:39:20.291Z,16.27
2018-12-13T20:41:47.904Z,16.53
2018-12-13T20:44:15.512Z,17.03
2018-12-13T20:46:43.089Z,17.67
2018-12-13T20:49:10.703Z,15.93
2018-12-13T20:51:38.320Z,16.73
2018-12-13T20:54:05.914Z,17.03
2018-12-13T20:56:33.513Z,15.70
2018-12-13T20:59:01.216Z,15.73
2018-12-13T21:01:28.787Z,16.97
2018-12-13T21:03:56.701Z,16.63
2018-12-13T21:06:24.378Z,16.83
2018-12-13T21:08:52.107Z,16.30
2018-12-13T21:11:19.802Z,16.17
2018-12-13T21:13:47.383Z,16.67
2018-12-13T21:16:15.049Z,16.50
2018-12-13T21:18:42.670Z,17.07
2018-12-13T21:21:10.323Z,17.47
2018-12-13T21:23:38.189Z,16.20
2018-12-13T21:26:05.882Z,17.40
2018-12-13T21:28:33.485Z,16.57
2018-12-13T21:31:01.233Z,16.60
2018-12-13T21:33:28.839Z,16.00
2018-12-13T21:35:56.702Z,17.33
2018-12-13T21:38:24.324Z,16.63
2018-12-13T21:40:52.053Z,15.70
2018-12-13T21:43:19.662Z,15.90
2018-12-13T21:45:47.264Z,16.53
2018-12-13T21:48:14.868Z,17.60
2018-12-13T21:50:42.468Z,17.47
2018-12-13T21:53:10.079Z,17.27
2018-12-13T21:55:37.692Z,16.27
2018-12-13T21:58:05.364Z,15.97
2018-12-13T22:00:32.983Z,16.77
2018-12-13T22:03:00.651Z,17.97
2018-12-13T22:05:28.394Z,16.57
2018-12-13T22:07:56.065Z,16.40
2018-12-13T22:10:23.682Z,16.07
2018-12-13T22:12:51.362Z,17.07
2018-12-13T22:15:18.990Z,16.83
2018-12-13T22:17:48.473Z,16.97
2018-12-13T22:20:16.141Z,15.80
2018-12-13T22:22:43.791Z,17.83
2018-12-13T22:25:11.465Z,17.03
2018-12-13T22:27:39.028Z,16.73
2018-12-13T22:30:07.039Z,17.63
2018-12-13T22:32:34.610Z,16.87
2018-12-13T22:35:02.299Z,17.33
2018-12-13T22:37:29.910Z,18.33
2018-12-13T22:39:57.515Z,18.63
2018-12-13T22:42:26.084Z,16.87
2018-12-13T22:44:54.330Z,17.23
2018-12-13T22:47:22.007Z,17.23
2018-12-13T22:49:49.633Z,18.80
2018-12-13T22:52:17.198Z,19.80
2018-12-13T22:54:44.806Z,18.27
2018-12-13T22:57:12.415Z,18.20
2018-12-13T22:59:40.184Z,18.27
2018-12-13T23:02:08.046Z,20.10
2018-12-13T23:04:35.965Z,18.80
2018-12-13T23:07:03.650Z,17.53
2018-12-13T23:09:31.288Z,18.17
2018-12-13T23:11:59.081Z,18.30
2018-12-13T23:14:26.816Z,19.33
2018-12-13T23:16:55.245Z,18.67
2018-12-13T23:19:22.867Z,18.67
2018-12-13T23:21:50.493Z,18.33
2018-12-13T23:24:18.080Z,18.10
2018-12-13T23:26:45.680Z,17.03
2018-12-13T23:29:13.319Z,17.10
2018-12-13T23:31:40.887Z,18.73
2018-12-13T23:34:08.520Z,17.10
2018-12-13T23:36:36.086Z,18.30
2018-12-13T23:39:05.276Z,18.50
2018-12-13T23:41:38.971Z,18.43
2018-12-13T23:44:02.617Z,17.93
2018-12-13T23:46:30.413Z,19.07
2018-12-13T23:48:57.989Z,18.70
2018-12-13T23:51:25.603Z,18.53
2018-12-13T23:53:53.218Z,19.87
2018-12-13T23:56:20.779Z,18.40
2018-12-13T23:58:48.683Z,19.67
